sensor_id;sensor_type;location;lat;lon;timestamp;temperature;humidity
31443;SHT31;18065;55.876;9.830;2023-02-15T00:01:35;22.76;47.48
31443;SHT31;18065;55.876;9.830;2023-02-15T00:04:05;22.76;47.43
31443;SHT31;18065;55.876;9.830;2023-02-15T00:06:37;22.73;47.17
31443;SHT31;18065;55.876;9.830;2023-02-15T00:09:08;22.76;47.47
31443;SHT31;18065;55.876;9.830;2023-02-15T00:11:41;22.77;47.49
31443;SHT31;18065;55.876;9.830;2023-02-15T00:14:17;22.73;47.48
31443;SHT31;18065;55.876;9.830;2023-02-15T00:16:46;22.76;47.50
31443;SHT31;18065;55.876;9.830;2023-02-15T00:19:17;22.75;47.52
31443;SHT31;18065;55.876;9.830;2023-02-15T00:21:46;22.73;47.18
31443;SHT31;18065;55.876;9.830;2023-02-15T00:24:17;22.72;47.30
31443;SHT31;18065;55.876;9.830;2023-02-15T00:26:49;22.75;47.44
31443;SHT31;18065;55.876;9.830;2023-02-15T00:29:19;22.72;47.43
31443;SHT31;18065;55.876;9.830;2023-02-15T00:31:48;22.72;47.35
31443;SHT31;18065;55.876;9.830;2023-02-15T00:34:20;22.72;47.52
31443;SHT31;18065;55.876;9.830;2023-02-15T00:36:51;22.73;47.32
31443;SHT31;18065;55.876;9.830;2023-02-15T00:39:19;22.72;47.21
31443;SHT31;18065;55.876;9.830;2023-02-15T00:41:51;22.73;47.41
31443;SHT31;18065;55.876;9.830;2023-02-15T00:44:21;22.73;47.35
31443;SHT31;18065;55.876;9.830;2023-02-15T00:46:49;22.71;47.41
31443;SHT31;18065;55.876;9.830;2023-02-15T00:49:19;22.69;47.50
31443;SHT31;18065;55.876;9.830;2023-02-15T00:51:49;22.72;47.32
31443;SHT31;18065;55.876;9.830;2023-02-15T00:54:18;22.69;47.41
31443;SHT31;18065;55.876;9.830;2023-02-15T00:56:48;22.69;47.48
31443;SHT31;18065;55.876;9.830;2023-02-15T00:59:19;22.69;47.50
31443;SHT31;18065;55.876;9.830;2023-02-15T01:01:48;22.68;47.38
31443;SHT31;18065;55.876;9.830;2023-02-15T01:04:16;22.71;47.37
31443;SHT31;18065;55.876;9.830;2023-02-15T01:06:45;22.69;47.32
31443;SHT31;18065;55.876;9.830;2023-02-15T01:09:14;22.68;47.47
31443;SHT31;18065;55.876;9.830;2023-02-15T01:11:43;22.68;47.50
31443;SHT31;18065;55.876;9.830;2023-02-15T01:14:13;22.69;47.39
31443;SHT31;18065;55.876;9.830;2023-02-15T01:16:48;22.66;47.39
31443;SHT31;18065;55.876;9.830;2023-02-15T01:19:17;22.68;47.43
31443;SHT31;18065;55.876;9.830;2023-02-15T01:21:46;22.65;47.44
31443;SHT31;18065;55.876;9.830;2023-02-15T01:24:14;22.64;47.31
31443;SHT31;18065;55.876;9.830;2023-02-15T01:26:43;22.65;47.05
31443;SHT31;18065;55.876;9.830;2023-02-15T01:29:12;22.64;47.26
31443;SHT31;18065;55.876;9.830;2023-02-15T01:31:41;22.65;47.35
31443;SHT31;18065;55.876;9.830;2023-02-15T01:34:14;22.65;47.19
31443;SHT31;18065;55.876;9.830;2023-02-15T01:36:43;22.65;47.13
31443;SHT31;18065;55.876;9.830;2023-02-15T01:39:11;22.65;47.14
31443;SHT31;18065;55.876;9.830;2023-02-15T01:41:40;22.61;47.31
31443;SHT31;18065;55.876;9.830;2023-02-15T01:47:08;22.62;47.30
31443;SHT31;18065;55.876;9.830;2023-02-15T01:49:42;22.59;47.34
31443;SHT31;18065;55.876;9.830;2023-02-15T01:52:16;22.59;47.33
31443;SHT31;18065;55.876;9.830;2023-02-15T01:54:47;22.58;47.42
31443;SHT31;18065;55.876;9.830;2023-02-15T01:57:19;22.61;47.43
31443;SHT31;18065;55.876;9.830;2023-02-15T01:59:55;22.59;47.41
31443;SHT31;18065;55.876;9.830;2023-02-15T02:02:25;22.59;47.37
31443;SHT31;18065;55.876;9.830;2023-02-15T02:04:58;22.58;47.39
31443;SHT31;18065;55.876;9.830;2023-02-15T02:07:34;22.61;47.39
31443;SHT31;18065;55.876;9.830;2023-02-15T02:10:05;22.59;47.40
31443;SHT31;18065;55.876;9.830;2023-02-15T02:12:37;22.58;47.37
31443;SHT31;18065;55.876;9.830;2023-02-15T02:15:07;22.58;47.36
31443;SHT31;18065;55.876;9.830;2023-02-15T02:17:44;22.61;47.47
31443;SHT31;18065;55.876;9.830;2023-02-15T02:20:51;22.58;47.43
31443;SHT31;18065;55.876;9.830;2023-02-15T02:23:38;22.58;47.30
31443;SHT31;18065;55.876;9.830;2023-02-15T02:26:42;22.56;47.48
31443;SHT31;18065;55.876;9.830;2023-02-15T02:29:40;22.55;47.44
31443;SHT31;18065;55.876;9.830;2023-02-15T02:35:25;22.55;47.29
31443;SHT31;18065;55.876;9.830;2023-02-15T02:38:02;22.54;47.34
31443;SHT31;18065;55.876;9.830;2023-02-15T02:40:39;22.52;47.35
31443;SHT31;18065;55.876;9.830;2023-02-15T02:43:18;22.54;47.32
31443;SHT31;18065;55.876;9.830;2023-02-15T02:45:54;22.52;47.33
31443;SHT31;18065;55.876;9.830;2023-02-15T02:48:29;22.54;47.21
31443;SHT31;18065;55.876;9.830;2023-02-15T02:51:02;22.54;47.34
31443;SHT31;18065;55.876;9.830;2023-02-15T02:53:33;22.54;47.43
31443;SHT31;18065;55.876;9.830;2023-02-15T02:56:06;22.54;47.26
31443;SHT31;18065;55.876;9.830;2023-02-15T02:58:40;22.55;47.15
31443;SHT31;18065;55.876;9.830;2023-02-15T03:01:15;22.55;47.12
31443;SHT31;18065;55.876;9.830;2023-02-15T03:03:47;22.54;47.17
31443;SHT31;18065;55.876;9.830;2023-02-15T03:06:24;22.55;47.39
31443;SHT31;18065;55.876;9.830;2023-02-15T03:08:58;22.54;47.12
31443;SHT31;18065;55.876;9.830;2023-02-15T03:11:30;22.54;46.98
31443;SHT31;18065;55.876;9.830;2023-02-15T03:14:00;22.51;47.20
31443;SHT31;18065;55.876;9.830;2023-02-15T03:16:31;22.52;47.10
31443;SHT31;18065;55.876;9.830;2023-02-15T03:19:02;22.52;47.22
31443;SHT31;18065;55.876;9.830;2023-02-15T03:21:37;22.51;47.29
31443;SHT31;18065;55.876;9.830;2023-02-15T03:24:10;22.51;47.30
31443;SHT31;18065;55.876;9.830;2023-02-15T03:26:45;22.52;47.24
31443;SHT31;18065;55.876;9.830;2023-02-15T03:29:15;22.54;47.17
31443;SHT31;18065;55.876;9.830;2023-02-15T03:31:48;22.49;47.16
31443;SHT31;18065;55.876;9.830;2023-02-15T03:34:19;22.54;47.06
31443;SHT31;18065;55.876;9.830;2023-02-15T03:36:57;22.49;47.08
31443;SHT31;18065;55.876;9.830;2023-02-15T03:39:30;22.52;47.11
31443;SHT31;18065;55.876;9.830;2023-02-15T03:42:08;22.51;46.91
31443;SHT31;18065;55.876;9.830;2023-02-15T03:44:47;22.51;47.16
31443;SHT31;18065;55.876;9.830;2023-02-15T03:47:20;22.49;47.01
31443;SHT31;18065;55.876;9.830;2023-02-15T03:49:53;22.51;47.16
31443;SHT31;18065;55.876;9.830;2023-02-15T03:52:27;22.51;47.18
31443;SHT31;18065;55.876;9.830;2023-02-15T03:54:54;22.51;46.95
31443;SHT31;18065;55.876;9.830;2023-02-15T03:57:25;22.49;47.01
31443;SHT31;18065;55.876;9.830;2023-02-15T04:00:13;22.48;47.12
31443;SHT31;18065;55.876;9.830;2023-02-15T04:03:12;22.48;47.10
31443;SHT31;18065;55.876;9.830;2023-02-15T04:05:45;22.47;47.20
31443;SHT31;18065;55.876;9.830;2023-02-15T04:08:17;22.48;47.01
31443;SHT31;18065;55.876;9.830;2023-02-15T04:10:45;22.47;47.02
31443;SHT31;18065;55.876;9.830;2023-02-15T04:13:23;22.48;46.95
31443;SHT31;18065;55.876;9.830;2023-02-15T04:15:54;22.47;46.87
31443;SHT31;18065;55.876;9.830;2023-02-15T04:18:30;22.47;46.94
31443;SHT31;18065;55.876;9.830;2023-02-15T04:21:12;22.48;46.85
31443;SHT31;18065;55.876;9.830;2023-02-15T04:23:55;22.47;46.95
31443;SHT31;18065;55.876;9.830;2023-02-15T04:26:36;22.45;46.81
31443;SHT31;18065;55.876;9.830;2023-02-15T04:29:05;22.47;46.70
31443;SHT31;18065;55.876;9.830;2023-02-15T04:31:34;22.48;46.86
31443;SHT31;18065;55.876;9.830;2023-02-15T04:34:03;22.47;46.91
31443;SHT31;18065;55.876;9.830;2023-02-15T04:36:32;22.47;46.82
31443;SHT31;18065;55.876;9.830;2023-02-15T04:39:03;22.48;47.01
31443;SHT31;18065;55.876;9.830;2023-02-15T04:41:33;22.45;46.83
31443;SHT31;18065;55.876;9.830;2023-02-15T04:44:02;22.45;46.61
31443;SHT31;18065;55.876;9.830;2023-02-15T04:46:33;22.44;46.81
31443;SHT31;18065;55.876;9.830;2023-02-15T04:49:02;22.45;46.73
31443;SHT31;18065;55.876;9.830;2023-02-15T04:51:31;22.45;46.84
31443;SHT31;18065;55.876;9.830;2023-02-15T04:54:01;22.44;46.89
31443;SHT31;18065;55.876;9.830;2023-02-15T04:56:33;22.42;46.89
31443;SHT31;18065;55.876;9.830;2023-02-15T04:59:03;22.45;46.96
31443;SHT31;18065;55.876;9.830;2023-02-15T05:01:32;22.45;47.00
31443;SHT31;18065;55.876;9.830;2023-02-15T05:04:00;22.42;47.00
31443;SHT31;18065;55.876;9.830;2023-02-15T05:06:30;22.41;46.90
31443;SHT31;18065;55.876;9.830;2023-02-15T05:09:01;22.42;46.94
31443;SHT31;18065;55.876;9.830;2023-02-15T05:11:33;22.44;47.05
31443;SHT31;18065;55.876;9.830;2023-02-15T05:14:01;22.44;46.98
31443;SHT31;18065;55.876;9.830;2023-02-15T05:16:30;22.44;46.77
31443;SHT31;18065;55.876;9.830;2023-02-15T05:18:59;22.44;46.89
31443;SHT31;18065;55.876;9.830;2023-02-15T05:21:28;22.47;47.20
31443;SHT31;18065;55.876;9.830;2023-02-15T05:23:57;22.38;47.36
31443;SHT31;18065;55.876;9.830;2023-02-15T05:26:25;22.35;47.59
31443;SHT31;18065;55.876;9.830;2023-02-15T05:29:10;22.35;47.66
31443;SHT31;18065;55.876;9.830;2023-02-15T05:31:39;22.34;47.74
31443;SHT31;18065;55.876;9.830;2023-02-15T05:34:09;22.32;47.73
31443;SHT31;18065;55.876;9.830;2023-02-15T05:36:38;22.29;47.74
31443;SHT31;18065;55.876;9.830;2023-02-15T05:39:06;22.27;47.78
31443;SHT31;18065;55.876;9.830;2023-02-15T05:41:35;22.27;47.83
31443;SHT31;18065;55.876;9.830;2023-02-15T05:44:04;22.25;47.84
31443;SHT31;18065;55.876;9.830;2023-02-15T05:46:35;22.27;47.87
31443;SHT31;18065;55.876;9.830;2023-02-15T05:49:04;22.24;47.91
31443;SHT31;18065;55.876;9.830;2023-02-15T05:51:33;22.21;48.00
31443;SHT31;18065;55.876;9.830;2023-02-15T05:54:01;22.22;48.08
31443;SHT31;18065;55.876;9.830;2023-02-15T05:56:30;22.21;48.06
31443;SHT31;18065;55.876;9.830;2023-02-15T05:58:59;22.20;48.20
31443;SHT31;18065;55.876;9.830;2023-02-15T06:01:28;22.18;48.22
31443;SHT31;18065;55.876;9.830;2023-02-15T06:03:59;22.18;48.39
31443;SHT31;18065;55.876;9.830;2023-02-15T06:06:28;22.18;48.48
31443;SHT31;18065;55.876;9.830;2023-02-15T06:08:56;22.18;48.41
31443;SHT31;18065;55.876;9.830;2023-02-15T06:11:25;22.21;48.62
31443;SHT31;18065;55.876;9.830;2023-02-15T06:13:54;22.17;48.69
31443;SHT31;18065;55.876;9.830;2023-02-15T06:16:23;22.17;48.68
31443;SHT31;18065;55.876;9.830;2023-02-15T06:18:51;22.17;48.68
31443;SHT31;18065;55.876;9.830;2023-02-15T06:21:23;22.14;48.71
31443;SHT31;18065;55.876;9.830;2023-02-15T06:23:51;22.17;48.75
31443;SHT31;18065;55.876;9.830;2023-02-15T06:26:20;22.16;48.82
31443;SHT31;18065;55.876;9.830;2023-02-15T06:28:49;22.14;48.83
31443;SHT31;18065;55.876;9.830;2023-02-15T06:31:17;22.17;48.93
31443;SHT31;18065;55.876;9.830;2023-02-15T06:33:46;22.14;48.91
31443;SHT31;18065;55.876;9.830;2023-02-15T06:36:15;22.13;48.89
31443;SHT31;18065;55.876;9.830;2023-02-15T06:38:46;22.14;48.88
31443;SHT31;18065;55.876;9.830;2023-02-15T06:41:15;22.14;48.91
31443;SHT31;18065;55.876;9.830;2023-02-15T06:43:44;22.16;48.96
31443;SHT31;18065;55.876;9.830;2023-02-15T06:46:12;22.17;48.95
31443;SHT31;18065;55.876;9.830;2023-02-15T06:48:41;22.13;49.04
31443;SHT31;18065;55.876;9.830;2023-02-15T06:51:10;22.17;49.00
31443;SHT31;18065;55.876;9.830;2023-02-15T06:53:38;22.13;48.97
31443;SHT31;18065;55.876;9.830;2023-02-15T06:56:11;22.16;48.98
31443;SHT31;18065;55.876;9.830;2023-02-15T06:58:40;22.16;49.00
31443;SHT31;18065;55.876;9.830;2023-02-15T07:01:11;22.17;48.85
31443;SHT31;18065;55.876;9.830;2023-02-15T07:03:40;22.17;48.89
31443;SHT31;18065;55.876;9.830;2023-02-15T07:06:09;22.17;48.86
31443;SHT31;18065;55.876;9.830;2023-02-15T07:08:38;22.21;48.73
31443;SHT31;18065;55.876;9.830;2023-02-15T07:11:10;22.17;48.83
31443;SHT31;18065;55.876;9.830;2023-02-15T07:13:51;22.20;48.77
31443;SHT31;18065;55.876;9.830;2023-02-15T07:16:20;22.18;48.82
31443;SHT31;18065;55.876;9.830;2023-02-15T07:18:49;22.18;48.77
31443;SHT31;18065;55.876;9.830;2023-02-15T07:21:17;22.22;48.71
31443;SHT31;18065;55.876;9.830;2023-02-15T07:23:46;22.18;48.83
31443;SHT31;18065;55.876;9.830;2023-02-15T07:26:18;22.21;48.78
31443;SHT31;18065;55.876;9.830;2023-02-15T07:28:46;22.20;48.77
31443;SHT31;18065;55.876;9.830;2023-02-15T07:31:15;22.20;48.76
31443;SHT31;18065;55.876;9.830;2023-02-15T07:33:44;22.21;48.82
31443;SHT31;18065;55.876;9.830;2023-02-15T07:36:13;22.20;48.85
31443;SHT31;18065;55.876;9.830;2023-02-15T07:38:42;22.20;48.75
31443;SHT31;18065;55.876;9.830;2023-02-15T07:41:12;22.20;48.72
31443;SHT31;18065;55.876;9.830;2023-02-15T07:43:44;22.25;48.48
31443;SHT31;18065;55.876;9.830;2023-02-15T07:46:16;22.29;48.24
31443;SHT31;18065;55.876;9.830;2023-02-15T07:48:46;22.32;48.39
31443;SHT31;18065;55.876;9.830;2023-02-15T07:51:15;22.37;48.43
31443;SHT31;18065;55.876;9.830;2023-02-15T07:53:44;22.37;48.65
31443;SHT31;18065;55.876;9.830;2023-02-15T07:56:14;22.42;48.87
31443;SHT31;18065;55.876;9.830;2023-02-15T07:58:45;22.47;48.86
31443;SHT31;18065;55.876;9.830;2023-02-15T08:01:23;22.49;49.07
31443;SHT31;18065;55.876;9.830;2023-02-15T08:03:52;22.54;48.78
31443;SHT31;18065;55.876;9.830;2023-02-15T08:06:23;22.54;49.01
31443;SHT31;18065;55.876;9.830;2023-02-15T08:08:52;22.58;49.16
31443;SHT31;18065;55.876;9.830;2023-02-15T08:11:22;22.58;49.31
31443;SHT31;18065;55.876;9.830;2023-02-15T08:14:00;22.64;49.51
31443;SHT31;18065;55.876;9.830;2023-02-15T08:16:31;22.64;49.29
31443;SHT31;18065;55.876;9.830;2023-02-15T08:19:03;22.64;49.34
31443;SHT31;18065;55.876;9.830;2023-02-15T08:21:33;22.65;49.46
31443;SHT31;18065;55.876;9.830;2023-02-15T08:24:02;22.65;49.52
31443;SHT31;18065;55.876;9.830;2023-02-15T08:26:32;22.68;49.45
31443;SHT31;18065;55.876;9.830;2023-02-15T08:29:04;22.72;49.63
31443;SHT31;18065;55.876;9.830;2023-02-15T08:31:33;22.69;49.49
31443;SHT31;18065;55.876;9.830;2023-02-15T08:34:03;22.73;49.48
31443;SHT31;18065;55.876;9.830;2023-02-15T08:36:32;22.73;49.92
31443;SHT31;18065;55.876;9.830;2023-02-15T08:39:04;22.75;49.73
31443;SHT31;18065;55.876;9.830;2023-02-15T08:41:34;22.79;49.72
31443;SHT31;18065;55.876;9.830;2023-02-15T08:44:07;22.77;49.62
31443;SHT31;18065;55.876;9.830;2023-02-15T08:46:38;22.82;49.76
31443;SHT31;18065;55.876;9.830;2023-02-15T08:49:08;22.82;50.05
31443;SHT31;18065;55.876;9.830;2023-02-15T08:51:37;22.76;48.15
31443;SHT31;18065;55.876;9.830;2023-02-15T08:54:08;22.73;47.75
31443;SHT31;18065;55.876;9.830;2023-02-15T08:56:38;22.71;47.62
31443;SHT31;18065;55.876;9.830;2023-02-15T08:59:12;22.65;47.81
31443;SHT31;18065;55.876;9.830;2023-02-15T09:01:41;22.65;47.76
31443;SHT31;18065;55.876;9.830;2023-02-15T09:04:11;22.59;47.82
31443;SHT31;18065;55.876;9.830;2023-02-15T09:06:41;22.58;47.86
31443;SHT31;18065;55.876;9.830;2023-02-15T09:09:11;22.55;47.99
31443;SHT31;18065;55.876;9.830;2023-02-15T09:11:41;22.52;48.00
31443;SHT31;18065;55.876;9.830;2023-02-15T09:14:14;22.49;48.15
31443;SHT31;18065;55.876;9.830;2023-02-15T09:16:44;22.49;48.12
31443;SHT31;18065;55.876;9.830;2023-02-15T09:19:15;22.47;48.13
31443;SHT31;18065;55.876;9.830;2023-02-15T09:21:44;22.47;48.07
31443;SHT31;18065;55.876;9.830;2023-02-15T09:24:14;22.47;48.09
31443;SHT31;18065;55.876;9.830;2023-02-15T09:26:44;22.44;48.08
31443;SHT31;18065;55.876;9.830;2023-02-15T09:29:17;22.44;47.98
31443;SHT31;18065;55.876;9.830;2023-02-15T09:31:48;22.45;48.08
31443;SHT31;18065;55.876;9.830;2023-02-15T09:34:18;22.44;48.05
31443;SHT31;18065;55.876;9.830;2023-02-15T09:36:48;22.45;48.05
31443;SHT31;18065;55.876;9.830;2023-02-15T09:39:18;22.48;47.92
31443;SHT31;18065;55.876;9.830;2023-02-15T09:42:26;22.45;48.04
31443;SHT31;18065;55.876;9.830;2023-02-15T09:45:13;22.42;48.23
31443;SHT31;18065;55.876;9.830;2023-02-15T09:48:06;22.37;48.34
31443;SHT31;18065;55.876;9.830;2023-02-15T09:50:42;22.35;48.26
31443;SHT31;18065;55.876;9.830;2023-02-15T09:53:29;22.31;48.40
31443;SHT31;18065;55.876;9.830;2023-02-15T09:56:09;22.31;48.40
31443;SHT31;18065;55.876;9.830;2023-02-15T09:58:52;22.31;48.44
31443;SHT31;18065;55.876;9.830;2023-02-15T10:01:33;22.31;48.46
31443;SHT31;18065;55.876;9.830;2023-02-15T10:04:18;22.31;48.30
31443;SHT31;18065;55.876;9.830;2023-02-15T10:07:01;22.35;48.39
31443;SHT31;18065;55.876;9.830;2023-02-15T10:09:47;22.35;48.35
31443;SHT31;18065;55.876;9.830;2023-02-15T10:12:32;22.38;48.30
31443;SHT31;18065;55.876;9.830;2023-02-15T10:15:20;22.39;48.32
31443;SHT31;18065;55.876;9.830;2023-02-15T10:18:06;22.42;48.28
31443;SHT31;18065;55.876;9.830;2023-02-15T10:20:41;22.41;48.16
31443;SHT31;18065;55.876;9.830;2023-02-15T10:23:29;22.42;48.07
31443;SHT31;18065;55.876;9.830;2023-02-15T10:26:10;22.44;48.03
31443;SHT31;18065;55.876;9.830;2023-02-15T10:28:46;22.44;47.95
31443;SHT31;18065;55.876;9.830;2023-02-15T10:31:28;22.44;48.00
31443;SHT31;18065;55.876;9.830;2023-02-15T10:34:15;22.44;48.01
31443;SHT31;18065;55.876;9.830;2023-02-15T10:37:04;22.45;47.90
31443;SHT31;18065;55.876;9.830;2023-02-15T10:39:43;22.48;47.88
31443;SHT31;18065;55.876;9.830;2023-02-15T10:42:21;22.49;47.77
31443;SHT31;18065;55.876;9.830;2023-02-15T10:45:04;22.47;47.87
31443;SHT31;18065;55.876;9.830;2023-02-15T10:47:45;22.45;47.86
31443;SHT31;18065;55.876;9.830;2023-02-15T10:50:29;22.47;47.79
31443;SHT31;18065;55.876;9.830;2023-02-15T10:53:22;22.44;47.81
31443;SHT31;18065;55.876;9.830;2023-02-15T10:55:59;22.45;47.76
31443;SHT31;18065;55.876;9.830;2023-02-15T10:58:41;22.45;47.79
31443;SHT31;18065;55.876;9.830;2023-02-15T11:01:19;22.49;47.81
31443;SHT31;18065;55.876;9.830;2023-02-15T11:04:05;22.48;47.79
31443;SHT31;18065;55.876;9.830;2023-02-15T11:06:42;22.45;47.74
31443;SHT31;18065;55.876;9.830;2023-02-15T11:09:15;22.48;47.82
31443;SHT31;18065;55.876;9.830;2023-02-15T11:11:49;22.47;47.76
31443;SHT31;18065;55.876;9.830;2023-02-15T11:14:35;22.44;47.80
31443;SHT31;18065;55.876;9.830;2023-02-15T11:17:09;22.45;47.64
31443;SHT31;18065;55.876;9.830;2023-02-15T11:19:43;22.45;47.70
31443;SHT31;18065;55.876;9.830;2023-02-15T11:22:19;22.45;47.69
31443;SHT31;18065;55.876;9.830;2023-02-15T11:24:48;22.42;47.56
31443;SHT31;18065;55.876;9.830;2023-02-15T11:27:20;22.44;47.69
31443;SHT31;18065;55.876;9.830;2023-02-15T11:29:57;22.47;47.70
31443;SHT31;18065;55.876;9.830;2023-02-15T11:32:28;22.45;47.72
31443;SHT31;18065;55.876;9.830;2023-02-15T11:35:02;22.44;47.71
31443;SHT31;18065;55.876;9.830;2023-02-15T11:37:40;22.45;47.65
31443;SHT31;18065;55.876;9.830;2023-02-15T11:40:18;22.42;47.70
31443;SHT31;18065;55.876;9.830;2023-02-15T11:42:48;22.45;47.62
31443;SHT31;18065;55.876;9.830;2023-02-15T11:45:23;22.45;47.76
31443;SHT31;18065;55.876;9.830;2023-02-15T11:47:54;22.45;47.74
31443;SHT31;18065;55.876;9.830;2023-02-15T11:50:24;22.45;47.75
31443;SHT31;18065;55.876;9.830;2023-02-15T11:52:59;22.45;47.78
31443;SHT31;18065;55.876;9.830;2023-02-15T11:55:29;22.47;47.67
31443;SHT31;18065;55.876;9.830;2023-02-15T11:58:03;22.47;47.77
31443;SHT31;18065;55.876;9.830;2023-02-15T12:00:36;22.51;47.69
31443;SHT31;18065;55.876;9.830;2023-02-15T12:03:13;22.49;47.64
31443;SHT31;18065;55.876;9.830;2023-02-15T12:05:45;22.51;47.65
31443;SHT31;18065;55.876;9.830;2023-02-15T12:08:21;22.52;47.60
31443;SHT31;18065;55.876;9.830;2023-02-15T12:10:57;22.51;47.68
31443;SHT31;18065;55.876;9.830;2023-02-15T12:13:29;22.52;47.58
31443;SHT31;18065;55.876;9.830;2023-02-15T12:15:59;22.56;47.64
31443;SHT31;18065;55.876;9.830;2023-02-15T12:18:37;22.52;47.65
31443;SHT31;18065;55.876;9.830;2023-02-15T12:21:09;22.54;47.59
31443;SHT31;18065;55.876;9.830;2023-02-15T12:23:47;22.52;47.67
31443;SHT31;18065;55.876;9.830;2023-02-15T12:26:23;22.52;47.74
31443;SHT31;18065;55.876;9.830;2023-02-15T12:28:54;22.51;47.59
31443;SHT31;18065;55.876;9.830;2023-02-15T12:31:26;22.52;47.61
31443;SHT31;18065;55.876;9.830;2023-02-15T12:33:57;22.54;47.70
31443;SHT31;18065;55.876;9.830;2023-02-15T12:36:29;22.51;47.72
31443;SHT31;18065;55.876;9.830;2023-02-15T12:39:20;22.49;47.92
31443;SHT31;18065;55.876;9.830;2023-02-15T12:42:00;22.49;47.82
31443;SHT31;18065;55.876;9.830;2023-02-15T12:44:31;22.51;47.78
31443;SHT31;18065;55.876;9.830;2023-02-15T12:47:02;22.51;47.80
31443;SHT31;18065;55.876;9.830;2023-02-15T12:49:32;22.51;47.82
31443;SHT31;18065;55.876;9.830;2023-02-15T12:52:03;22.48;47.81
31443;SHT31;18065;55.876;9.830;2023-02-15T12:54:40;22.52;47.78
31443;SHT31;18065;55.876;9.830;2023-02-15T12:57:30;22.51;47.91
31443;SHT31;18065;55.876;9.830;2023-02-15T13:00:00;22.52;47.82
31443;SHT31;18065;55.876;9.830;2023-02-15T13:02:36;22.51;47.83
31443;SHT31;18065;55.876;9.830;2023-02-15T13:05:18;22.49;47.90
31443;SHT31;18065;55.876;9.830;2023-02-15T13:07:50;22.48;47.83
31443;SHT31;18065;55.876;9.830;2023-02-15T13:10:26;22.48;47.83
31443;SHT31;18065;55.876;9.830;2023-02-15T13:12:56;22.48;47.81
31443;SHT31;18065;55.876;9.830;2023-02-15T13:15:32;22.51;47.69
31443;SHT31;18065;55.876;9.830;2023-02-15T13:18:05;22.55;47.69
31443;SHT31;18065;55.876;9.830;2023-02-15T13:20:38;22.58;47.59
31443;SHT31;18065;55.876;9.830;2023-02-15T13:23:23;22.58;47.55
31443;SHT31;18065;55.876;9.830;2023-02-15T13:25:58;22.59;47.51
31443;SHT31;18065;55.876;9.830;2023-02-15T13:28:34;22.58;47.49
31443;SHT31;18065;55.876;9.830;2023-02-15T13:31:12;22.62;47.56
31443;SHT31;18065;55.876;9.830;2023-02-15T13:33:44;22.61;47.62
31443;SHT31;18065;55.876;9.830;2023-02-15T13:36:20;22.61;47.50
31443;SHT31;18065;55.876;9.830;2023-02-15T13:39:12;22.59;47.52
31443;SHT31;18065;55.876;9.830;2023-02-15T13:41:53;22.61;47.45
31443;SHT31;18065;55.876;9.830;2023-02-15T13:44:55;22.61;47.47
31443;SHT31;18065;55.876;9.830;2023-02-15T13:47:31;22.58;47.34
31443;SHT31;18065;55.876;9.830;2023-02-15T13:50:20;22.61;47.33
31443;SHT31;18065;55.876;9.830;2023-02-15T13:53:09;22.59;47.30
31443;SHT31;18065;55.876;9.830;2023-02-15T13:55:44;22.62;47.39
31443;SHT31;18065;55.876;9.830;2023-02-15T14:01:24;22.62;47.32
31443;SHT31;18065;55.876;9.830;2023-02-15T14:04:16;22.61;47.35
31443;SHT31;18065;55.876;9.830;2023-02-15T14:06:57;22.62;47.28
31443;SHT31;18065;55.876;9.830;2023-02-15T14:09:42;22.59;47.36
31443;SHT31;18065;55.876;9.830;2023-02-15T14:12:34;22.61;47.40
31443;SHT31;18065;55.876;9.830;2023-02-15T14:15:18;22.58;47.29
31443;SHT31;18065;55.876;9.830;2023-02-15T14:18:03;22.61;47.33
31443;SHT31;18065;55.876;9.830;2023-02-15T14:20:45;22.58;47.31
31443;SHT31;18065;55.876;9.830;2023-02-15T14:23:23;22.61;47.33
31443;SHT31;18065;55.876;9.830;2023-02-15T14:25:59;22.59;47.18
31443;SHT31;18065;55.876;9.830;2023-02-15T14:28:35;22.61;47.24
31443;SHT31;18065;55.876;9.830;2023-02-15T14:31:11;22.58;47.25
31443;SHT31;18065;55.876;9.830;2023-02-15T14:33:47;22.61;47.28
31443;SHT31;18065;55.876;9.830;2023-02-15T14:36:20;22.56;47.23
31443;SHT31;18065;55.876;9.830;2023-02-15T14:38:56;22.59;47.24
31443;SHT31;18065;55.876;9.830;2023-02-15T14:41:32;22.61;47.15
31443;SHT31;18065;55.876;9.830;2023-02-15T14:44:09;22.59;47.19
31443;SHT31;18065;55.876;9.830;2023-02-15T14:46:42;22.61;47.16
31443;SHT31;18065;55.876;9.830;2023-02-15T14:49:19;22.61;47.25
31443;SHT31;18065;55.876;9.830;2023-02-15T14:52:00;22.59;47.21
31443;SHT31;18065;55.876;9.830;2023-02-15T14:54:57;22.58;47.27
31443;SHT31;18065;55.876;9.830;2023-02-15T14:57:35;22.58;47.22
31443;SHT31;18065;55.876;9.830;2023-02-15T15:00:29;22.58;47.20
31443;SHT31;18065;55.876;9.830;2023-02-15T15:02:59;22.59;47.13
31443;SHT31;18065;55.876;9.830;2023-02-15T15:05:34;22.56;47.16
31443;SHT31;18065;55.876;9.830;2023-02-15T15:08:04;22.58;47.19
31443;SHT31;18065;55.876;9.830;2023-02-15T15:10:39;22.54;47.25
31443;SHT31;18065;55.876;9.830;2023-02-15T15:13:41;22.54;47.33
31443;SHT31;18065;55.876;9.830;2023-02-15T15:16:47;22.54;47.24
31443;SHT31;18065;55.876;9.830;2023-02-15T15:22:20;22.51;47.12
31443;SHT31;18065;55.876;9.830;2023-02-15T15:24:51;22.51;47.20
31443;SHT31;18065;55.876;9.830;2023-02-15T15:27:39;22.52;47.26
31443;SHT31;18065;55.876;9.830;2023-02-15T15:36:18;22.48;47.18
31443;SHT31;18065;55.876;9.830;2023-02-15T15:39:03;22.45;47.20
31443;SHT31;18065;55.876;9.830;2023-02-15T15:41:41;22.45;47.09
31443;SHT31;18065;55.876;9.830;2023-02-15T15:44:40;22.47;47.22
31443;SHT31;18065;55.876;9.830;2023-02-15T15:47:34;22.45;47.21
31443;SHT31;18065;55.876;9.830;2023-02-15T15:50:12;22.45;47.07
31443;SHT31;18065;55.876;9.830;2023-02-15T15:52:46;22.42;47.03
31443;SHT31;18065;55.876;9.830;2023-02-15T15:55:20;22.45;47.14
31443;SHT31;18065;55.876;9.830;2023-02-15T15:57:52;22.41;47.05
31443;SHT31;18065;55.876;9.830;2023-02-15T16:00:35;22.42;47.13
31443;SHT31;18065;55.876;9.830;2023-02-15T16:03:05;22.42;47.04
31443;SHT31;18065;55.876;9.830;2023-02-15T16:05:37;22.38;47.00
31443;SHT31;18065;55.876;9.830;2023-02-15T16:08:06;22.41;47.01
31443;SHT31;18065;55.876;9.830;2023-02-15T16:10:37;22.39;47.05
31443;SHT31;18065;55.876;9.830;2023-02-15T16:13:06;22.38;47.03
31443;SHT31;18065;55.876;9.830;2023-02-15T16:15:42;22.39;47.06
31443;SHT31;18065;55.876;9.830;2023-02-15T16:18:16;22.38;46.99
31443;SHT31;18065;55.876;9.830;2023-02-15T16:20:50;22.37;47.01
31443;SHT31;18065;55.876;9.830;2023-02-15T16:26:51;22.38;47.10
31443;SHT31;18065;55.876;9.830;2023-02-15T16:29:28;22.35;47.05
31443;SHT31;18065;55.876;9.830;2023-02-15T16:31:59;22.37;47.07
31443;SHT31;18065;55.876;9.830;2023-02-15T16:34:28;22.35;47.08
31443;SHT31;18065;55.876;9.830;2023-02-15T16:37:13;22.32;47.05